This is the latest recevied weather packets stored in our database for station/object YD2APR-13. If no packets are shown the sender has not sent any weather packets the latest 10 day(s).
| Time | Temp. | Humidity | Pressure | Rain* | Wind** | Luminosity | Snow |
|---|---|---|---|---|---|---|---|
| 1777979736 | 26.67° C | 77% | 1014.7 hPa | - | - | - | - |
| 1777979136 | 26.67° C | 75% | 1014.4 hPa | - | - | - | - |
| 1777978536 | 26.67° C | 74% | 1014.2 hPa | - | - | - | - |
| 1777977936 | 27.22° C | 72% | 1014.1 hPa | - | - | - | - |
| 1777977336 | 27.22° C | 71% | 1014.2 hPa | - | - | - | - |
| 1777976737 | 27.78° C | 70% | 1014.1 hPa | - | - | - | - |
| 1777976136 | 27.78° C | 69% | 1014 hPa | - | - | - | - |
| 1777975536 | 28.33° C | 68% | 1014 hPa | - | - | - | - |
| 1777974936 | 28.33° C | 67% | 1013.9 hPa | - | - | - | - |
| 1777974336 | 28.33° C | 66% | 1013.7 hPa | - | - | - | - |
| 1777973736 | 28.89° C | 65% | 1013.6 hPa | - | - | - | - |
| 1777973136 | 29.44° C | 63% | 1013.5 hPa | - | - | - | - |
| 1777972536 | 30° C | 62% | 1013.3 hPa | - | - | - | - |
| 1777971936 | 31.11° C | 60% | 1013.2 hPa | - | - | - | - |
| 1777971336 | 31.11° C | 60% | 1013.2 hPa | - | - | - | - |
| 1777970736 | 32.22° C | 58% | 1013.4 hPa | - | - | - | - |
| 1777970714 | 32.22° C | 58% | 1013.4 hPa | - | - | - | - |
| 1777970541 | 32.22° C | 56% | 1013.1 hPa | - | - | - | - |
| 1777969941 | 31.67° C | 56% | 1013.1 hPa | - | - | - | - |
| 1777969340 | 32.22° C | 57% | 1013.1 hPa | - | - | - | - |
| 1777968741 | 32.22° C | 56% | 1013.1 hPa | - | - | - | - |
| 1777968141 | 31.67° C | 59% | 1013 hPa | - | - | - | - |
| 1777967540 | 31.11° C | 61% | 1013 hPa | - | - | - | - |
| 1777966940 | 32.22° C | 58% | 1013.1 hPa | - | - | - | - |
| 1777966340 | 32.22° C | 56% | 1013.2 hPa | - | - | - | - |
* Rain since midnight (hover to see other rain measurements)
** Current wind speed in m/s (hover to see current wind gust speed)